sensor_id;sensor_type;location;lat;lon;timestamp;temperature;humidity
33508;DHT22;25568;37.410;-122.096;2022-07-03T00:01:21;22.70;70.30
33508;DHT22;25568;37.410;-122.096;2022-07-03T00:03:51;22.70;70.30
33508;DHT22;25568;37.410;-122.096;2022-07-03T00:06:20;22.70;70.30
33508;DHT22;25568;37.410;-122.096;2022-07-03T00:08:50;22.70;70.20
33508;DHT22;25568;37.410;-122.096;2022-07-03T00:11:18;22.70;70.30
33508;DHT22;25568;37.410;-122.096;2022-07-03T00:13:48;22.70;70.30
33508;DHT22;25568;37.410;-122.096;2022-07-03T00:16:16;22.80;70.30
33508;DHT22;25568;37.410;-122.096;2022-07-03T00:18:57;22.80;70.30
33508;DHT22;25568;37.410;-122.096;2022-07-03T00:21:27;22.80;70.30
33508;DHT22;25568;37.410;-122.096;2022-07-03T00:24:00;22.80;70.30
33508;DHT22;25568;37.410;-122.096;2022-07-03T00:26:30;22.80;70.30
33508;DHT22;25568;37.410;-122.096;2022-07-03T00:29:03;22.80;70.30
33508;DHT22;25568;37.410;-122.096;2022-07-03T00:31:32;22.80;70.30
33508;DHT22;25568;37.410;-122.096;2022-07-03T00:34:01;22.80;70.20
33508;DHT22;25568;37.410;-122.096;2022-07-03T00:36:30;22.80;70.20
33508;DHT22;25568;37.410;-122.096;2022-07-03T00:39:02;22.90;70.40
33508;DHT22;25568;37.410;-122.096;2022-07-03T00:41:34;22.90;70.30
33508;DHT22;25568;37.410;-122.096;2022-07-03T00:44:05;22.90;70.30
33508;DHT22;25568;37.410;-122.096;2022-07-03T00:46:34;22.90;70.40
33508;DHT22;25568;37.410;-122.096;2022-07-03T00:49:09;22.90;70.20
33508;DHT22;25568;37.410;-122.096;2022-07-03T00:51:40;22.90;70.30
33508;DHT22;25568;37.410;-122.096;2022-07-03T00:54:10;22.90;70.20
33508;DHT22;25568;37.410;-122.096;2022-07-03T00:56:46;22.90;70.30
33508;DHT22;25568;37.410;-122.096;2022-07-03T00:59:17;22.90;70.20
33508;DHT22;25568;37.410;-122.096;2022-07-03T01:01:46;23.00;70.30
33508;DHT22;25568;37.410;-122.096;2022-07-03T01:04:21;23.00;70.30
33508;DHT22;25568;37.410;-122.096;2022-07-03T01:07:00;23.00;70.40
33508;DHT22;25568;37.410;-122.096;2022-07-03T01:09:34;23.00;70.30
33508;DHT22;25568;37.410;-122.096;2022-07-03T01:12:07;23.00;70.30
33508;DHT22;25568;37.410;-122.096;2022-07-03T01:14:41;23.00;70.30
33508;DHT22;25568;37.410;-122.096;2022-07-03T01:17:17;23.00;70.20
33508;DHT22;25568;37.410;-122.096;2022-07-03T01:22:42;23.00;70.20
33508;DHT22;25568;37.410;-122.096;2022-07-03T01:25:17;23.00;70.20
33508;DHT22;25568;37.410;-122.096;2022-07-03T01:30:38;23.00;70.20
33508;DHT22;25568;37.410;-122.096;2022-07-03T01:33:07;23.00;70.20
33508;DHT22;25568;37.410;-122.096;2022-07-03T01:35:38;23.10;70.20
33508;DHT22;25568;37.410;-122.096;2022-07-03T01:38:09;23.10;70.20
33508;DHT22;25568;37.410;-122.096;2022-07-03T01:40:38;23.10;70.20
33508;DHT22;25568;37.410;-122.096;2022-07-03T01:43:08;23.10;70.20
33508;DHT22;25568;37.410;-122.096;2022-07-03T01:45:39;23.10;70.20
33508;DHT22;25568;37.410;-122.096;2022-07-03T01:48:09;23.10;70.20
33508;DHT22;25568;37.410;-122.096;2022-07-03T01:50:45;23.10;70.20
33508;DHT22;25568;37.410;-122.096;2022-07-03T01:53:15;23.10;70.20
33508;DHT22;25568;37.410;-122.096;2022-07-03T01:55:46;23.10;70.20
33508;DHT22;25568;37.410;-122.096;2022-07-03T01:58:16;23.10;70.20
33508;DHT22;25568;37.410;-122.096;2022-07-03T02:00:56;23.20;70.20
33508;DHT22;25568;37.410;-122.096;2022-07-03T02:03:27;23.20;70.20
33508;DHT22;25568;37.410;-122.096;2022-07-03T02:05:58;23.20;70.20
33508;DHT22;25568;37.410;-122.096;2022-07-03T02:08:43;23.20;70.20
33508;DHT22;25568;37.410;-122.096;2022-07-03T02:11:13;23.20;70.20
33508;DHT22;25568;37.410;-122.096;2022-07-03T02:13:50;23.20;70.20
33508;DHT22;25568;37.410;-122.096;2022-07-03T02:16:23;23.20;70.20
33508;DHT22;25568;37.410;-122.096;2022-07-03T02:19:02;23.20;70.20
33508;DHT22;25568;37.410;-122.096;2022-07-03T02:21:34;23.20;71.00
33508;DHT22;25568;37.410;-122.096;2022-07-03T02:24:15;23.20;70.20
33508;DHT22;25568;37.410;-122.096;2022-07-03T02:26:46;23.20;70.10
33508;DHT22;25568;37.410;-122.096;2022-07-03T02:29:15;23.20;70.10
33508;DHT22;25568;37.410;-122.096;2022-07-03T02:31:45;23.20;70.10
33508;DHT22;25568;37.410;-122.096;2022-07-03T02:34:15;23.20;70.10
33508;DHT22;25568;37.410;-122.096;2022-07-03T02:36:45;23.20;70.10
33508;DHT22;25568;37.410;-122.096;2022-07-03T02:39:17;23.20;70.10
33508;DHT22;25568;37.410;-122.096;2022-07-03T02:41:57;23.30;70.20
33508;DHT22;25568;37.410;-122.096;2022-07-03T02:44:31;23.20;70.10
33508;DHT22;25568;37.410;-122.096;2022-07-03T02:47:06;23.20;70.10
33508;DHT22;25568;37.410;-122.096;2022-07-03T02:49:43;23.30;70.10
33508;DHT22;25568;37.410;-122.096;2022-07-03T02:52:24;23.20;70.00
33508;DHT22;25568;37.410;-122.096;2022-07-03T02:54:55;23.20;70.00
33508;DHT22;25568;37.410;-122.096;2022-07-03T02:57:28;23.30;70.20
33508;DHT22;25568;37.410;-122.096;2022-07-03T03:00:11;23.30;70.10
33508;DHT22;25568;37.410;-122.096;2022-07-03T03:02:48;23.30;70.10
33508;DHT22;25568;37.410;-122.096;2022-07-03T03:05:21;23.30;70.10
33508;DHT22;25568;37.410;-122.096;2022-07-03T03:08:02;23.30;70.10
33508;DHT22;25568;37.410;-122.096;2022-07-03T03:10:34;23.30;70.10
33508;DHT22;25568;37.410;-122.096;2022-07-03T03:13:03;23.30;70.00
33508;DHT22;25568;37.410;-122.096;2022-07-03T03:15:39;23.30;70.00
33508;DHT22;25568;37.410;-122.096;2022-07-03T03:18:15;23.30;70.00
33508;DHT22;25568;37.410;-122.096;2022-07-03T03:20:57;23.30;70.00
33508;DHT22;25568;37.410;-122.096;2022-07-03T03:23:33;23.30;70.00
33508;DHT22;25568;37.410;-122.096;2022-07-03T03:31:53;23.30;70.00
33508;DHT22;25568;37.410;-122.096;2022-07-03T03:34:29;23.30;70.00
33508;DHT22;25568;37.410;-122.096;2022-07-03T03:37:02;23.30;70.00
33508;DHT22;25568;37.410;-122.096;2022-07-03T03:39:31;23.30;70.00
33508;DHT22;25568;37.410;-122.096;2022-07-03T03:41:59;23.30;70.00
33508;DHT22;25568;37.410;-122.096;2022-07-03T03:44:34;23.30;70.00
33508;DHT22;25568;37.410;-122.096;2022-07-03T03:47:05;23.30;70.00
33508;DHT22;25568;37.410;-122.096;2022-07-03T03:49:36;23.30;69.90
33508;DHT22;25568;37.410;-122.096;2022-07-03T03:52:05;23.30;70.00
33508;DHT22;25568;37.410;-122.096;2022-07-03T03:54:34;23.30;70.00
33508;DHT22;25568;37.410;-122.096;2022-07-03T03:59:48;23.30;70.00
33508;DHT22;25568;37.410;-122.096;2022-07-03T04:02:41;23.30;70.20
33508;DHT22;25568;37.410;-122.096;2022-07-03T04:05:28;23.40;70.20
33508;DHT22;25568;37.410;-122.096;2022-07-03T04:08:01;23.40;70.20
33508;DHT22;25568;37.410;-122.096;2022-07-03T04:10:38;23.30;70.00
33508;DHT22;25568;37.410;-122.096;2022-07-03T04:13:24;23.30;70.00
33508;DHT22;25568;37.410;-122.096;2022-07-03T04:16:08;23.30;70.00
33508;DHT22;25568;37.410;-122.096;2022-07-03T04:18:55;23.30;70.00
33508;DHT22;25568;37.410;-122.096;2022-07-03T04:21:58;23.30;70.00
33508;DHT22;25568;37.410;-122.096;2022-07-03T04:24:53;23.20;69.90
33508;DHT22;25568;37.410;-122.096;2022-07-03T04:27:47;23.30;70.00
33508;DHT22;25568;37.410;-122.096;2022-07-03T04:30:29;23.20;70.00
33508;DHT22;25568;37.410;-122.096;2022-07-03T04:33:01;23.20;70.00
33508;DHT22;25568;37.410;-122.096;2022-07-03T04:35:53;23.30;70.00
33508;DHT22;25568;37.410;-122.096;2022-07-03T04:53:59;23.20;69.90
33508;DHT22;25568;37.410;-122.096;2022-07-03T04:56:49;23.20;69.90
33508;DHT22;25568;37.410;-122.096;2022-07-03T04:59:50;23.20;69.90
33508;DHT22;25568;37.410;-122.096;2022-07-03T05:02:36;23.20;69.90
33508;DHT22;25568;37.410;-122.096;2022-07-03T05:05:33;23.20;69.90
33508;DHT22;25568;37.410;-122.096;2022-07-03T05:08:18;23.20;69.90
33508;DHT22;25568;37.410;-122.096;2022-07-03T05:19:59;23.10;69.90
33508;DHT22;25568;37.410;-122.096;2022-07-03T05:23:40;23.10;69.90
33508;DHT22;25568;37.410;-122.096;2022-07-03T05:26:43;23.10;69.90
33508;DHT22;25568;37.410;-122.096;2022-07-03T05:29:36;23.10;69.80
33508;DHT22;25568;37.410;-122.096;2022-07-03T05:32:17;23.10;69.80
33508;DHT22;25568;37.410;-122.096;2022-07-03T05:38:07;23.10;69.90
33508;DHT22;25568;37.410;-122.096;2022-07-03T05:40:53;23.10;69.90
33508;DHT22;25568;37.410;-122.096;2022-07-03T05:43:38;23.10;69.80
33508;DHT22;25568;37.410;-122.096;2022-07-03T05:46:17;23.00;69.70
33508;DHT22;25568;37.410;-122.096;2022-07-03T05:49:10;23.00;69.70
33508;DHT22;25568;37.410;-122.096;2022-07-03T05:52:09;23.00;69.70
33508;DHT22;25568;37.410;-122.096;2022-07-03T06:09:55;23.00;69.70
33508;DHT22;25568;37.410;-122.096;2022-07-03T06:12:23;23.00;69.70
33508;DHT22;25568;37.410;-122.096;2022-07-03T06:14:53;23.00;69.70
33508;DHT22;25568;37.410;-122.096;2022-07-03T06:17:22;23.00;69.70
33508;DHT22;25568;37.410;-122.096;2022-07-03T06:22:46;22.90;69.70
33508;DHT22;25568;37.410;-122.096;2022-07-03T06:25:32;22.90;69.70
33508;DHT22;25568;37.410;-122.096;2022-07-03T06:28:09;22.90;69.70
33508;DHT22;25568;37.410;-122.096;2022-07-03T06:30:43;22.90;69.70
33508;DHT22;25568;37.410;-122.096;2022-07-03T06:33:12;22.90;69.70
33508;DHT22;25568;37.410;-122.096;2022-07-03T06:35:40;22.90;69.70
33508;DHT22;25568;37.410;-122.096;2022-07-03T06:38:09;22.90;69.70
33508;DHT22;25568;37.410;-122.096;2022-07-03T06:40:39;22.90;69.70
33508;DHT22;25568;37.410;-122.096;2022-07-03T06:43:10;22.90;69.70
33508;DHT22;25568;37.410;-122.096;2022-07-03T06:45:38;22.90;69.70
33508;DHT22;25568;37.410;-122.096;2022-07-03T06:48:06;22.90;69.70
33508;DHT22;25568;37.410;-122.096;2022-07-03T06:53:03;22.90;69.00
33508;DHT22;25568;37.410;-122.096;2022-07-03T06:55:31;22.90;69.70
33508;DHT22;25568;37.410;-122.096;2022-07-03T06:58:10;22.80;69.60
33508;DHT22;25568;37.410;-122.096;2022-07-03T07:00:41;22.80;69.60
33508;DHT22;25568;37.410;-122.096;2022-07-03T07:03:09;22.80;69.60
33508;DHT22;25568;37.410;-122.096;2022-07-03T07:05:38;22.80;69.70
33508;DHT22;25568;37.410;-122.096;2022-07-03T07:08:06;22.80;69.60
33508;DHT22;25568;37.410;-122.096;2022-07-03T07:10:34;22.80;69.60
33508;DHT22;25568;37.410;-122.096;2022-07-03T07:13:05;22.80;69.60
33508;DHT22;25568;37.410;-122.096;2022-07-03T07:15:39;22.80;69.70
33508;DHT22;25568;37.410;-122.096;2022-07-03T07:18:09;22.80;69.70
33508;DHT22;25568;37.410;-122.096;2022-07-03T07:20:37;22.80;69.70
33508;DHT22;25568;37.410;-122.096;2022-07-03T07:23:06;22.80;69.70
33508;DHT22;25568;37.410;-122.096;2022-07-03T07:25:35;22.70;69.50
33508;DHT22;25568;37.410;-122.096;2022-07-03T07:28:05;22.70;70.40
33508;DHT22;25568;37.410;-122.096;2022-07-03T07:30:33;22.70;69.50
33508;DHT22;25568;37.410;-122.096;2022-07-03T07:33:02;22.70;69.60
33508;DHT22;25568;37.410;-122.096;2022-07-03T07:35:30;22.70;69.60
33508;DHT22;25568;37.410;-122.096;2022-07-03T07:37:58;22.70;70.40
33508;DHT22;25568;37.410;-122.096;2022-07-03T07:40:45;22.70;69.50
33508;DHT22;25568;37.410;-122.096;2022-07-03T07:43:15;22.70;69.70
33508;DHT22;25568;37.410;-122.096;2022-07-03T07:45:43;22.70;69.60
33508;DHT22;25568;37.410;-122.096;2022-07-03T07:48:11;22.70;69.60
33508;DHT22;25568;37.410;-122.096;2022-07-03T07:50:39;22.70;69.60
33508;DHT22;25568;37.410;-122.096;2022-07-03T07:53:08;22.60;69.50
33508;DHT22;25568;37.410;-122.096;2022-07-03T07:55:36;22.60;69.50
33508;DHT22;25568;37.410;-122.096;2022-07-03T07:58:04;22.60;69.50
33508;DHT22;25568;37.410;-122.096;2022-07-03T08:00:34;22.60;69.50
33508;DHT22;25568;37.410;-122.096;2022-07-03T08:03:03;22.60;69.50
33508;DHT22;25568;37.410;-122.096;2022-07-03T08:05:47;22.60;69.50
33508;DHT22;25568;37.410;-122.096;2022-07-03T08:08:16;22.60;69.50
33508;DHT22;25568;37.410;-122.096;2022-07-03T08:10:45;22.60;69.50
33508;DHT22;25568;37.410;-122.096;2022-07-03T08:13:15;22.60;69.60
33508;DHT22;25568;37.410;-122.096;2022-07-03T08:15:45;22.60;69.50
33508;DHT22;25568;37.410;-122.096;2022-07-03T08:18:14;22.50;69.50
33508;DHT22;25568;37.410;-122.096;2022-07-03T08:20:43;22.50;69.50
33508;DHT22;25568;37.410;-122.096;2022-07-03T08:23:24;22.50;69.50
33508;DHT22;25568;37.410;-122.096;2022-07-03T08:25:53;22.50;69.50
33508;DHT22;25568;37.410;-122.096;2022-07-03T08:28:22;22.50;69.50
33508;DHT22;25568;37.410;-122.096;2022-07-03T08:30:52;22.50;69.50
33508;DHT22;25568;37.410;-122.096;2022-07-03T08:33:20;22.50;69.50
33508;DHT22;25568;37.410;-122.096;2022-07-03T08:35:48;22.50;69.50
33508;DHT22;25568;37.410;-122.096;2022-07-03T08:38:17;22.50;69.50
33508;DHT22;25568;37.410;-122.096;2022-07-03T08:40:45;22.50;69.50
33508;DHT22;25568;37.410;-122.096;2022-07-03T08:43:14;22.50;69.50
33508;DHT22;25568;37.410;-122.096;2022-07-03T08:45:43;22.40;69.40
33508;DHT22;25568;37.410;-122.096;2022-07-03T08:48:15;22.40;69.40
33508;DHT22;25568;37.410;-122.096;2022-07-03T08:50:47;22.40;69.40
33508;DHT22;25568;37.410;-122.096;2022-07-03T08:53:17;22.40;69.40
33508;DHT22;25568;37.410;-122.096;2022-07-03T08:55:45;22.40;69.50
33508;DHT22;25568;37.410;-122.096;2022-07-03T08:58:18;22.40;69.40
33508;DHT22;25568;37.410;-122.096;2022-07-03T09:00:50;22.40;69.50
33508;DHT22;25568;37.410;-122.096;2022-07-03T09:03:20;22.40;69.50
33508;DHT22;25568;37.410;-122.096;2022-07-03T09:05:50;22.40;69.50
33508;DHT22;25568;37.410;-122.096;2022-07-03T09:08:19;22.40;70.30
33508;DHT22;25568;37.410;-122.096;2022-07-03T09:10:49;22.40;69.40
33508;DHT22;25568;37.410;-122.096;2022-07-03T09:13:17;22.40;69.50
33508;DHT22;25568;37.410;-122.096;2022-07-03T09:15:46;22.40;69.40
33508;DHT22;25568;37.410;-122.096;2022-07-03T09:18:16;22.30;69.40
33508;DHT22;25568;37.410;-122.096;2022-07-03T09:20:49;22.30;69.40
33508;DHT22;25568;37.410;-122.096;2022-07-03T09:23:34;22.30;69.40
33508;DHT22;25568;37.410;-122.096;2022-07-03T09:26:03;22.30;69.40
33508;DHT22;25568;37.410;-122.096;2022-07-03T09:28:44;22.30;69.40
33508;DHT22;25568;37.410;-122.096;2022-07-03T09:31:17;22.30;69.40
33508;DHT22;25568;37.410;-122.096;2022-07-03T09:34:06;22.30;69.40
33508;DHT22;25568;37.410;-122.096;2022-07-03T09:36:41;22.30;69.40
33508;DHT22;25568;37.410;-122.096;2022-07-03T09:39:16;22.20;69.40
33508;DHT22;25568;37.410;-122.096;2022-07-03T09:41:51;22.20;69.40
33508;DHT22;25568;37.410;-122.096;2022-07-03T09:44:30;22.20;69.30
33508;DHT22;25568;37.410;-122.096;2022-07-03T09:47:11;22.20;69.30
33508;DHT22;25568;37.410;-122.096;2022-07-03T09:49:46;22.20;69.40
33508;DHT22;25568;37.410;-122.096;2022-07-03T09:52:34;22.20;69.40
33508;DHT22;25568;37.410;-122.096;2022-07-03T09:55:12;22.20;69.40
33508;DHT22;25568;37.410;-122.096;2022-07-03T09:57:41;22.20;69.40
33508;DHT22;25568;37.410;-122.096;2022-07-03T10:00:16;22.20;69.40
33508;DHT22;25568;37.410;-122.096;2022-07-03T10:02:56;22.20;69.40
33508;DHT22;25568;37.410;-122.096;2022-07-03T10:05:25;22.20;69.40
33508;DHT22;25568;37.410;-122.096;2022-07-03T10:07:56;22.10;69.30
33508;DHT22;25568;37.410;-122.096;2022-07-03T10:10:30;22.10;69.30
33508;DHT22;25568;37.410;-122.096;2022-07-03T10:12:59;22.10;69.30
33508;DHT22;25568;37.410;-122.096;2022-07-03T10:15:28;22.10;69.30
33508;DHT22;25568;37.410;-122.096;2022-07-03T10:17:57;22.10;69.30
33508;DHT22;25568;37.410;-122.096;2022-07-03T10:20:26;22.10;69.30
33508;DHT22;25568;37.410;-122.096;2022-07-03T10:22:56;22.10;69.30
33508;DHT22;25568;37.410;-122.096;2022-07-03T10:25:25;22.10;69.30
33508;DHT22;25568;37.410;-122.096;2022-07-03T10:27:53;22.00;69.20
33508;DHT22;25568;37.410;-122.096;2022-07-03T10:30:23;22.00;69.20
33508;DHT22;25568;37.410;-122.096;2022-07-03T10:32:54;22.00;69.20
33508;DHT22;25568;37.410;-122.096;2022-07-03T10:35:23;22.00;69.30
33508;DHT22;25568;37.410;-122.096;2022-07-03T10:37:58;22.00;69.20
33508;DHT22;25568;37.410;-122.096;2022-07-03T10:40:33;22.00;69.20
33508;DHT22;25568;37.410;-122.096;2022-07-03T10:43:24;22.00;69.20
33508;DHT22;25568;37.410;-122.096;2022-07-03T10:46:13;22.00;69.20
33508;DHT22;25568;37.410;-122.096;2022-07-03T10:48:51;22.00;69.20
33508;DHT22;25568;37.410;-122.096;2022-07-03T10:51:23;22.00;69.20
33508;DHT22;25568;37.410;-122.096;2022-07-03T10:56:44;21.90;69.20
33508;DHT22;25568;37.410;-122.096;2022-07-03T11:02:18;21.90;69.20
33508;DHT22;25568;37.410;-122.096;2022-07-03T11:07:33;21.90;69.20
33508;DHT22;25568;37.410;-122.096;2022-07-03T11:12:56;21.90;69.20
33508;DHT22;25568;37.410;-122.096;2022-07-03T11:15:25;21.90;69.20
33508;DHT22;25568;37.410;-122.096;2022-07-03T11:23:28;21.90;69.20
33508;DHT22;25568;37.410;-122.096;2022-07-03T11:25:57;21.80;69.10
33508;DHT22;25568;37.410;-122.096;2022-07-03T11:31:19;21.90;69.20
33508;DHT22;25568;37.410;-122.096;2022-07-03T11:33:48;21.80;69.20
33508;DHT22;25568;37.410;-122.096;2022-07-03T11:36:23;21.80;69.10
33508;DHT22;25568;37.410;-122.096;2022-07-03T11:39:03;21.80;69.20
33508;DHT22;25568;37.410;-122.096;2022-07-03T11:41:49;21.80;69.10
33508;DHT22;25568;37.410;-122.096;2022-07-03T11:44:18;21.80;69.20
33508;DHT22;25568;37.410;-122.096;2022-07-03T11:46:49;21.80;69.10
33508;DHT22;25568;37.410;-122.096;2022-07-03T11:49:26;21.80;69.20
33508;DHT22;25568;37.410;-122.096;2022-07-03T11:52:00;21.70;69.10
33508;DHT22;25568;37.410;-122.096;2022-07-03T11:54:49;21.80;69.20
33508;DHT22;25568;37.410;-122.096;2022-07-03T11:57:18;21.70;69.00
33508;DHT22;25568;37.410;-122.096;2022-07-03T11:59:46;21.70;69.10
33508;DHT22;25568;37.410;-122.096;2022-07-03T12:02:16;21.70;69.10
33508;DHT22;25568;37.410;-122.096;2022-07-03T12:04:47;21.70;69.10
33508;DHT22;25568;37.410;-122.096;2022-07-03T12:07:16;21.70;69.10
33508;DHT22;25568;37.410;-122.096;2022-07-03T12:09:44;21.70;69.10
33508;DHT22;25568;37.410;-122.096;2022-07-03T12:12:15;21.70;69.10
33508;DHT22;25568;37.410;-122.096;2022-07-03T12:17:43;21.70;69.10
33508;DHT22;25568;37.410;-122.096;2022-07-03T12:20:15;21.70;69.10
33508;DHT22;25568;37.410;-122.096;2022-07-03T12:22:44;21.70;69.20
33508;DHT22;25568;37.410;-122.096;2022-07-03T12:25:16;21.60;69.00
33508;DHT22;25568;37.410;-122.096;2022-07-03T12:27:45;21.70;69.10
33508;DHT22;25568;37.410;-122.096;2022-07-03T12:30:21;21.70;69.10
33508;DHT22;25568;37.410;-122.096;2022-07-03T12:33:00;21.60;69.00
33508;DHT22;25568;37.410;-122.096;2022-07-03T12:35:28;21.60;69.00
33508;DHT22;25568;37.410;-122.096;2022-07-03T12:37:57;21.60;69.00
33508;DHT22;25568;37.410;-122.096;2022-07-03T12:40:25;21.60;69.00
33508;DHT22;25568;37.410;-122.096;2022-07-03T12:42:54;21.60;69.00
33508;DHT22;25568;37.410;-122.096;2022-07-03T12:45:27;21.60;69.00
33508;DHT22;25568;37.410;-122.096;2022-07-03T12:48:01;21.60;69.00
33508;DHT22;25568;37.410;-122.096;2022-07-03T12:50:45;21.60;69.00
33508;DHT22;25568;37.410;-122.096;2022-07-03T12:53:25;21.60;69.00
33508;DHT22;25568;37.410;-122.096;2022-07-03T12:58:40;21.50;69.00
33508;DHT22;25568;37.410;-122.096;2022-07-03T13:01:25;21.50;69.00
33508;DHT22;25568;37.410;-122.096;2022-07-03T13:03:56;21.60;69.10
33508;DHT22;25568;37.410;-122.096;2022-07-03T13:06:32;21.50;69.00
33508;DHT22;25568;37.410;-122.096;2022-07-03T13:09:02;21.50;69.00
33508;DHT22;25568;37.410;-122.096;2022-07-03T13:11:34;21.50;69.00
33508;DHT22;25568;37.410;-122.096;2022-07-03T13:14:03;21.50;69.00
33508;DHT22;25568;37.410;-122.096;2022-07-03T13:16:35;21.50;69.00
33508;DHT22;25568;37.410;-122.096;2022-07-03T13:19:06;21.50;69.00
33508;DHT22;25568;37.410;-122.096;2022-07-03T13:21:34;21.50;69.00
33508;DHT22;25568;37.410;-122.096;2022-07-03T13:24:06;21.50;69.00
33508;DHT22;25568;37.410;-122.096;2022-07-03T13:26:34;21.50;69.00
33508;DHT22;25568;37.410;-122.096;2022-07-03T13:29:03;21.40;69.00
33508;DHT22;25568;37.410;-122.096;2022-07-03T13:31:32;21.50;69.00
33508;DHT22;25568;37.410;-122.096;2022-07-03T13:34:00;21.40;69.00
33508;DHT22;25568;37.410;-122.096;2022-07-03T13:36:30;21.50;69.00
33508;DHT22;25568;37.410;-122.096;2022-07-03T13:39:02;21.40;69.00
33508;DHT22;25568;37.410;-122.096;2022-07-03T13:41:30;21.40;69.00
33508;DHT22;25568;37.410;-122.096;2022-07-03T13:43:58;21.40;69.00
33508;DHT22;25568;37.410;-122.096;2022-07-03T13:46:28;21.40;69.00
33508;DHT22;25568;37.410;-122.096;2022-07-03T13:48:57;21.40;69.00
33508;DHT22;25568;37.410;-122.096;2022-07-03T13:51:25;21.40;69.00
33508;DHT22;25568;37.410;-122.096;2022-07-03T13:54:04;21.40;69.00
33508;DHT22;25568;37.410;-122.096;2022-07-03T13:56:45;21.40;69.00
33508;DHT22;25568;37.410;-122.096;2022-07-03T13:59:29;21.40;69.00
33508;DHT22;25568;37.410;-122.096;2022-07-03T14:02:23;21.40;69.00
33508;DHT22;25568;37.410;-122.096;2022-07-03T14:04:56;21.40;69.00
33508;DHT22;25568;37.410;-122.096;2022-07-03T14:07:32;21.40;69.00
33508;DHT22;25568;37.410;-122.096;2022-07-03T14:10:12;21.40;69.00
33508;DHT22;25568;37.410;-122.096;2022-07-03T14:12:56;21.30;68.90
33508;DHT22;25568;37.410;-122.096;2022-07-03T14:15:27;21.30;69.00
33508;DHT22;25568;37.410;-122.096;2022-07-03T14:17:58;21.30;68.90
33508;DHT22;25568;37.410;-122.096;2022-07-03T14:20:36;21.30;69.00
33508;DHT22;25568;37.410;-122.096;2022-07-03T14:23:06;21.30;69.00
33508;DHT22;25568;37.410;-122.096;2022-07-03T14:25:45;21.30;69.00
33508;DHT22;25568;37.410;-122.096;2022-07-03T14:28:21;21.30;69.00
33508;DHT22;25568;37.410;-122.096;2022-07-03T14:31:06;21.30;69.00
33508;DHT22;25568;37.410;-122.096;2022-07-03T14:33:56;21.30;69.00
33508;DHT22;25568;37.410;-122.096;2022-07-03T14:36:29;21.30;69.00
33508;DHT22;25568;37.410;-122.096;2022-07-03T14:39:10;21.30;69.00
33508;DHT22;25568;37.410;-122.096;2022-07-03T14:41:52;21.30;69.00
33508;DHT22;25568;37.410;-122.096;2022-07-03T14:44:22;21.30;69.80
33508;DHT22;25568;37.410;-122.096;2022-07-03T14:47:06;21.20;68.90
33508;DHT22;25568;37.410;-122.096;2022-07-03T14:49:47;21.30;69.00
33508;DHT22;25568;37.410;-122.096;2022-07-03T14:52:16;21.30;69.00
33508;DHT22;25568;37.410;-122.096;2022-07-03T14:54:49;21.20;68.90
33508;DHT22;25568;37.410;-122.096;2022-07-03T14:57:31;21.20;68.90
33508;DHT22;25568;37.410;-122.096;2022-07-03T15:00:13;21.20;68.90
33508;DHT22;25568;37.410;-122.096;2022-07-03T15:02:45;21.20;68.90
33508;DHT22;25568;37.410;-122.096;2022-07-03T15:05:26;21.20;69.00
33508;DHT22;25568;37.410;-122.096;2022-07-03T15:08:04;21.20;68.90
33508;DHT22;25568;37.410;-122.096;2022-07-03T15:10:56;21.20;68.90
33508;DHT22;25568;37.410;-122.096;2022-07-03T15:13:45;21.20;68.90
33508;DHT22;25568;37.410;-122.096;2022-07-03T15:16:16;21.20;69.00
33508;DHT22;25568;37.410;-122.096;2022-07-03T15:19:21;21.20;68.90
33508;DHT22;25568;37.410;-122.096;2022-07-03T15:21:51;21.20;69.00
33508;DHT22;25568;37.410;-122.096;2022-07-03T15:24:20;21.20;68.90
33508;DHT22;25568;37.410;-122.096;2022-07-03T15:26:52;21.20;68.90
33508;DHT22;25568;37.410;-122.096;2022-07-03T15:32:40;21.20;68.90
33508;DHT22;25568;37.410;-122.096;2022-07-03T15:35:12;21.10;68.90
33508;DHT22;25568;37.410;-122.096;2022-07-03T15:37:45;21.20;69.00
33508;DHT22;25568;37.410;-122.096;2022-07-03T15:40:16;21.10;68.90
33508;DHT22;25568;37.410;-122.096;2022-07-03T15:42:54;21.20;69.00
33508;DHT22;25568;37.410;-122.096;2022-07-03T15:45:30;21.10;68.90
33508;DHT22;25568;37.410;-122.096;2022-07-03T15:48:03;21.10;68.90
33508;DHT22;25568;37.410;-122.096;2022-07-03T15:50:36;21.10;68.90
33508;DHT22;25568;37.410;-122.096;2022-07-03T15:53:06;21.10;68.90
33508;DHT22;25568;37.410;-122.096;2022-07-03T15:55:40;21.10;68.90
33508;DHT22;25568;37.410;-122.096;2022-07-03T15:58:10;21.10;68.90
33508;DHT22;25568;37.410;-122.096;2022-07-03T16:00:38;21.10;68.90
33508;DHT22;25568;37.410;-122.096;2022-07-03T16:03:12;21.10;68.90
33508;DHT22;25568;37.410;-122.096;2022-07-03T16:05:43;21.10;68.90
33508;DHT22;25568;37.410;-122.096;2022-07-03T16:08:13;21.10;68.90
33508;DHT22;25568;37.410;-122.096;2022-07-03T16:10:42;21.10;68.90
33508;DHT22;25568;37.410;-122.096;2022-07-03T16:13:10;21.10;68.90
33508;DHT22;25568;37.410;-122.096;2022-07-03T16:15:39;21.10;68.90
33508;DHT22;25568;37.410;-122.096;2022-07-03T16:18:08;21.10;68.90
33508;DHT22;25568;37.410;-122.096;2022-07-03T16:20:38;21.10;68.90
33508;DHT22;25568;37.410;-122.096;2022-07-03T16:23:06;21.10;68.90
33508;DHT22;25568;37.410;-122.096;2022-07-03T16:25:36;21.10;68.90
33508;DHT22;25568;37.410;-122.096;2022-07-03T16:28:06;21.10;68.90
33508;DHT22;25568;37.410;-122.096;2022-07-03T16:30:35;21.10;68.90
33508;DHT22;25568;37.410;-122.096;2022-07-03T16:33:04;21.10;69.00
33508;DHT22;25568;37.410;-122.096;2022-07-03T16:35:34;21.10;68.90
33508;DHT22;25568;37.410;-122.096;2022-07-03T16:38:05;21.10;68.90
33508;DHT22;25568;37.410;-122.096;2022-07-03T16:40:36;21.00;68.90
33508;DHT22;25568;37.410;-122.096;2022-07-03T16:43:05;21.00;68.90
33508;DHT22;25568;37.410;-122.096;2022-07-03T16:45:35;21.10;68.90
33508;DHT22;25568;37.410;-122.096;2022-07-03T16:48:06;21.00;68.90
33508;DHT22;25568;37.410;-122.096;2022-07-03T16:50:36;21.00;68.80
33508;DHT22;25568;37.410;-122.096;2022-07-03T16:53:06;21.00;68.90
33508;DHT22;25568;37.410;-122.096;2022-07-03T16:55:34;21.00;68.90
33508;DHT22;25568;37.410;-122.096;2022-07-03T16:58:02;21.00;68.90
33508;DHT22;25568;37.410;-122.096;2022-07-03T17:00:30;21.00;68.90